createdAt,value
2023-12-23T00:00:22.746Z,27.12
2023-12-23T00:02:54.065Z,27.05
2023-12-23T00:05:24.806Z,27.12
2023-12-23T00:07:55.515Z,26.98
2023-12-23T00:10:26.050Z,27.05
2023-12-23T00:12:56.604Z,26.97
2023-12-23T00:15:27.178Z,26.90
2023-12-23T00:17:58.084Z,26.96
2023-12-23T00:20:28.763Z,26.97
2023-12-23T00:22:59.743Z,26.96
2023-12-23T00:25:30.253Z,26.98
2023-12-23T00:28:00.841Z,26.91
2023-12-23T00:30:31.690Z,26.92
2023-12-23T00:33:03.352Z,26.93
2023-12-23T00:35:33.896Z,26.92
2023-12-23T00:38:04.487Z,26.94
2023-12-23T00:40:35.105Z,26.94
2023-12-23T00:43:06.125Z,26.96
2023-12-23T00:45:37.295Z,26.94
2023-12-23T00:48:08.369Z,26.92
2023-12-23T00:50:39.090Z,27.00
2023-12-23T00:53:10.241Z,26.96
2023-12-23T00:55:42.078Z,26.97
2023-12-23T00:58:12.645Z,26.96
2023-12-23T01:00:43.172Z,26.96
2023-12-23T01:03:13.810Z,27.00
2023-12-23T01:05:44.324Z,27.02
2023-12-23T01:08:14.906Z,27.02
2023-12-23T01:10:45.382Z,27.04
2023-12-23T01:13:15.987Z,27.07
2023-12-23T01:15:46.597Z,27.01
2023-12-23T01:18:17.852Z,27.02
2023-12-23T01:20:48.441Z,26.99
2023-12-23T01:23:19.328Z,26.94
2023-12-23T01:25:49.956Z,26.95
2023-12-23T01:28:20.575Z,26.95
2023-12-23T01:30:51.257Z,26.96
2023-12-23T01:33:22.039Z,26.97
2023-12-23T01:35:52.653Z,27.01
2023-12-23T01:38:23.323Z,27.04
2023-12-23T01:40:53.907Z,27.05
2023-12-23T01:43:24.481Z,27.03
2023-12-23T01:46:02.516Z,27.06
2023-12-23T01:48:38.454Z,27.06
2023-12-23T01:51:09.135Z,27.05
2023-12-23T01:53:40.102Z,27.03
2023-12-23T01:56:11.766Z,27.02
2023-12-23T01:58:42.673Z,27.03
2023-12-23T02:01:13.415Z,27.09
2023-12-23T02:03:44.826Z,27.09
2023-12-23T02:06:14.946Z,27.14
2023-12-23T02:08:45.324Z,27.13
2023-12-23T02:11:23.113Z,27.09
2023-12-23T02:14:06.815Z,27.02
2023-12-23T02:16:39.473Z,27.08
2023-12-23T02:19:10.361Z,27.08
2023-12-23T02:21:40.995Z,27.05
2023-12-23T02:24:11.775Z,27.09
2023-12-23T02:26:45.233Z,27.12
2023-12-23T02:29:18.165Z,27.11
2023-12-23T02:31:50.054Z,27.12
2023-12-23T02:34:21.660Z,27.05
2023-12-23T02:36:52.569Z,27.05
2023-12-23T02:39:23.106Z,27.08
2023-12-23T02:41:54.668Z,27.07
2023-12-23T02:44:25.251Z,27.10
2023-12-23T02:46:55.818Z,27.14
2023-12-23T02:49:27.073Z,27.12
2023-12-23T02:51:59.150Z,27.09
2023-12-23T02:54:29.614Z,27.14
2023-12-23T02:57:00.185Z,27.14
2023-12-23T02:59:30.719Z,27.15
2023-12-23T03:02:01.336Z,27.17
2023-12-23T03:04:32.677Z,27.17
2023-12-23T03:07:04.255Z,27.17
2023-12-23T03:09:34.805Z,27.17
2023-12-23T03:12:56.704Z,27.19
2023-12-23T03:15:27.232Z,27.23
2023-12-23T03:17:59.007Z,27.22
2023-12-23T03:20:30.218Z,27.19
2023-12-23T03:23:00.865Z,27.22
2023-12-23T03:25:32.669Z,27.17
2023-12-23T03:28:03.240Z,27.17
2023-12-23T03:30:33.755Z,27.18
2023-12-23T03:33:04.557Z,27.22
2023-12-23T03:35:35.132Z,27.19
2023-12-23T03:38:05.776Z,27.20
2023-12-23T03:40:36.368Z,27.22
2023-12-23T03:43:07.577Z,27.26
2023-12-23T03:45:38.213Z,27.24
2023-12-23T03:48:10.295Z,27.28
2023-12-23T03:50:40.672Z,27.30
2023-12-23T03:53:12.242Z,27.31
2023-12-23T03:55:43.007Z,27.26
2023-12-23T03:58:13.603Z,27.26
2023-12-23T04:00:44.614Z,27.26
2023-12-23T04:03:15.307Z,27.21
2023-12-23T04:05:46.074Z,27.28
2023-12-23T04:08:17.039Z,27.28
2023-12-23T04:10:47.802Z,27.30
2023-12-23T04:13:19.830Z,27.30
2023-12-23T04:15:50.632Z,27.34
2023-12-23T04:18:21.348Z,27.34
2023-12-23T04:20:52.143Z,27.37
2023-12-23T04:23:22.966Z,27.34
2023-12-23T04:25:54.262Z,27.35
2023-12-23T04:28:28.128Z,27.41
2023-12-23T04:31:00.393Z,27.41
2023-12-23T04:33:31.020Z,27.39
2023-12-23T04:36:01.951Z,27.41
2023-12-23T04:38:32.797Z,27.42
2023-12-23T04:41:04.232Z,27.40
2023-12-23T04:43:37.324Z,27.42
2023-12-23T04:46:08.277Z,27.47
2023-12-23T04:48:39.188Z,27.48
2023-12-23T04:51:10.280Z,27.52
2023-12-23T04:53:41.529Z,27.50
2023-12-23T04:56:11.955Z,27.55
2023-12-23T04:58:42.546Z,27.55
2023-12-23T05:01:13.217Z,27.55
2023-12-23T05:03:45.219Z,27.55
2023-12-23T05:06:16.108Z,27.53
2023-12-23T05:08:47.050Z,27.53
2023-12-23T05:11:18.015Z,27.55
2023-12-23T05:13:48.612Z,27.58
2023-12-23T05:16:19.229Z,27.58
2023-12-23T05:18:50.473Z,27.59
2023-12-23T05:21:21.104Z,27.61
2023-12-23T05:23:52.057Z,27.59
2023-12-23T05:26:25.984Z,27.57
2023-12-23T05:28:56.864Z,27.59
2023-12-23T05:31:27.608Z,27.59
2023-12-23T05:33:59.718Z,27.60
2023-12-23T05:36:30.429Z,27.60
2023-12-23T05:39:00.932Z,27.60
2023-12-23T05:41:31.598Z,27.61
2023-12-23T05:44:03.276Z,27.61
2023-12-23T05:46:35.079Z,27.65
2023-12-23T05:49:05.661Z,27.63
2023-12-23T05:51:36.383Z,27.61
2023-12-23T05:54:07.007Z,27.63
2023-12-23T05:56:37.678Z,27.63
2023-12-23T05:59:08.291Z,27.66
2023-12-23T06:01:38.752Z,27.65
2023-12-23T06:04:09.267Z,27.64
2023-12-23T06:06:39.837Z,27.66
2023-12-23T06:09:10.429Z,27.68
2023-12-23T06:11:41.009Z,27.71
2023-12-23T06:14:11.884Z,27.70
2023-12-23T06:16:46.431Z,27.69
2023-12-23T06:19:17.630Z,27.71
2023-12-23T06:21:50.339Z,27.73
2023-12-23T06:24:20.890Z,27.75
2023-12-23T06:26:51.583Z,27.74
2023-12-23T06:29:22.120Z,27.76
2023-12-23T06:31:52.722Z,27.71
2023-12-23T06:34:52.552Z,27.71
2023-12-23T06:37:23.121Z,27.72
2023-12-23T06:39:53.833Z,27.74
2023-12-23T06:42:24.317Z,27.75
2023-12-23T06:44:54.896Z,27.75
2023-12-23T06:47:25.569Z,27.73
2023-12-23T06:49:56.243Z,27.74
2023-12-23T06:52:26.789Z,27.74
2023-12-23T06:54:57.361Z,27.74
2023-12-23T06:57:43.318Z,27.76
2023-12-23T07:00:14.379Z,27.77
2023-12-23T07:02:45.098Z,27.79
2023-12-23T07:05:16.756Z,27.76
2023-12-23T07:07:47.636Z,27.79
2023-12-23T07:10:19.580Z,27.79
2023-12-23T07:12:50.313Z,27.79
2023-12-23T07:15:21.281Z,27.81
2023-12-23T07:17:51.905Z,27.81
2023-12-23T07:20:23.166Z,27.81
2023-12-23T07:22:54.048Z,27.82
2023-12-23T07:25:24.901Z,27.84
2023-12-23T07:27:55.415Z,27.83
2023-12-23T07:30:25.768Z,27.84
2023-12-23T07:32:56.768Z,27.84
2023-12-23T07:35:27.880Z,27.84
2023-12-23T07:37:58.418Z,27.85
2023-12-23T07:40:31.061Z,27.86
2023-12-23T07:43:03.160Z,27.85
2023-12-23T07:45:35.358Z,27.90
2023-12-23T07:48:06.336Z,27.90
2023-12-23T07:50:37.050Z,27.90
2023-12-23T07:53:07.924Z,27.90
2023-12-23T07:55:38.800Z,27.91
2023-12-23T07:58:09.334Z,27.91
2023-12-23T08:00:39.886Z,27.92
2023-12-23T08:03:10.641Z,27.89
2023-12-23T08:05:41.293Z,27.92
2023-12-23T08:08:14.040Z,27.94
2023-12-23T08:10:44.564Z,27.93
2023-12-23T08:13:15.311Z,27.94
2023-12-23T08:15:45.753Z,27.94
2023-12-23T08:18:16.357Z,27.94
2023-12-23T08:20:47.884Z,27.95
2023-12-23T08:23:18.658Z,27.94
2023-12-23T08:25:50.089Z,27.96
2023-12-23T08:28:20.780Z,27.96
2023-12-23T08:30:51.326Z,27.99
2023-12-23T08:33:21.942Z,27.99
2023-12-23T08:35:53.248Z,28.00
2023-12-23T08:38:23.361Z,28.01
2023-12-23T08:40:53.794Z,27.99
2023-12-23T08:43:24.333Z,28.00
2023-12-23T08:45:54.839Z,28.00
2023-12-23T08:48:25.443Z,28.01
2023-12-23T08:50:56.269Z,28.03
2023-12-23T08:53:26.838Z,28.01
2023-12-23T08:55:57.795Z,28.01
2023-12-23T08:58:29.433Z,28.00
2023-12-23T09:00:59.412Z,28.03
2023-12-23T09:03:31.495Z,28.01
2023-12-23T09:06:02.803Z,28.02
2023-12-23T09:08:33.438Z,28.02
2023-12-23T09:11:07.609Z,28.01
2023-12-23T09:13:38.189Z,28.02
2023-12-23T09:16:08.880Z,28.03
2023-12-23T09:18:39.475Z,28.02
2023-12-23T09:21:10.176Z,28.06
2023-12-23T09:23:41.678Z,28.06
2023-12-23T09:26:11.899Z,28.07
2023-12-23T09:28:42.469Z,28.04
2023-12-23T09:31:13.097Z,28.06
2023-12-23T09:33:43.712Z,28.04
2023-12-23T09:36:14.778Z,28.07
2023-12-23T09:38:46.278Z,28.07
2023-12-23T09:41:18.151Z,28.04
2023-12-23T09:43:49.356Z,28.06
2023-12-23T09:46:23.458Z,28.03
2023-12-23T09:48:54.545Z,28.05
2023-12-23T09:51:29.632Z,28.03
2023-12-23T09:54:05.385Z,28.06
2023-12-23T09:56:37.766Z,28.05
2023-12-23T09:59:08.376Z,28.08
2023-12-23T10:01:38.750Z,28.08
2023-12-23T10:04:09.239Z,28.07
2023-12-23T10:06:40.042Z,28.07
2023-12-23T10:09:13.928Z,28.08
2023-12-23T10:11:44.640Z,28.08
2023-12-23T10:14:16.504Z,28.08
2023-12-23T10:16:48.607Z,28.08
2023-12-23T10:19:19.903Z,28.07
2023-12-23T10:21:52.227Z,28.09
2023-12-23T10:24:23.141Z,28.09
2023-12-23T10:26:53.633Z,28.08
2023-12-23T10:29:28.830Z,28.10
2023-12-23T10:32:02.609Z,28.09
2023-12-23T10:34:45.572Z,28.07
2023-12-23T10:37:16.370Z,28.10
2023-12-23T10:39:54.815Z,28.08
2023-12-23T10:42:27.637Z,28.07
2023-12-23T10:44:59.912Z,28.07
2023-12-23T10:47:32.287Z,28.09
2023-12-23T10:50:04.739Z,28.07
2023-12-23T10:52:36.154Z,28.08
2023-12-23T10:55:06.854Z,28.06
2023-12-23T10:57:40.056Z,28.06
2023-12-23T11:00:13.284Z,28.08
2023-12-23T11:02:45.383Z,28.08
2023-12-23T11:05:16.763Z,28.07
2023-12-23T11:07:49.132Z,28.07
2023-12-23T11:10:21.064Z,28.07
2023-12-23T11:12:52.076Z,28.05
2023-12-23T11:15:22.771Z,28.05
2023-12-23T11:17:54.388Z,28.05
2023-12-23T11:20:39.082Z,28.08
2023-12-23T11:23:34.425Z,28.07
2023-12-23T11:26:07.383Z,28.09
2023-12-23T11:28:41.901Z,28.08
2023-12-23T11:31:12.857Z,28.09
2023-12-23T11:33:43.623Z,28.09
2023-12-23T11:36:15.531Z,28.10
2023-12-23T11:38:51.553Z,28.09
2023-12-23T11:41:24.026Z,28.11
2023-12-23T11:43:56.224Z,28.10
2023-12-23T11:46:28.386Z,28.09
2023-12-23T11:49:00.514Z,28.08
2023-12-23T11:51:31.249Z,28.10
2023-12-23T11:54:01.965Z,28.11
2023-12-23T11:56:33.034Z,28.09
2023-12-23T11:59:05.421Z,28.10
2023-12-23T12:01:38.785Z,28.10
2023-12-23T12:04:09.570Z,28.12
2023-12-23T12:06:40.450Z,28.10
2023-12-23T12:09:12.871Z,28.10
2023-12-23T12:11:43.561Z,28.10
2023-12-23T12:14:15.523Z,28.10
2023-12-23T12:16:46.106Z,28.11
2023-12-23T12:19:17.098Z,28.10
2023-12-23T12:21:48.207Z,28.12
2023-12-23T12:24:18.825Z,28.13
2023-12-23T12:26:55.825Z,28.15
2023-12-23T12:29:27.463Z,28.15
2023-12-23T12:31:58.398Z,28.16
2023-12-23T12:34:31.805Z,28.17
2023-12-23T12:37:02.303Z,28.19
2023-12-23T12:39:33.589Z,28.18
2023-12-23T12:42:04.293Z,28.20
2023-12-23T12:44:37.578Z,28.18
2023-12-23T12:47:08.459Z,28.18
2023-12-23T12:49:55.299Z,28.19
2023-12-23T12:52:31.137Z,28.20
2023-12-23T12:55:09.289Z,28.19
2023-12-23T12:57:39.826Z,28.21
2023-12-23T13:00:11.599Z,28.22
2023-12-23T13:02:42.152Z,28.21
2023-12-23T13:05:13.181Z,28.23
2023-12-23T13:07:43.650Z,28.22
2023-12-23T13:10:14.333Z,28.23
2023-12-23T13:12:45.613Z,28.21
2023-12-23T13:15:16.340Z,28.25
2023-12-23T13:17:47.101Z,28.26
2023-12-23T13:20:17.972Z,28.24
2023-12-23T13:22:49.227Z,28.27
2023-12-23T13:25:20.139Z,28.28
2023-12-23T13:27:50.934Z,28.27
2023-12-23T13:30:21.517Z,28.26
2023-12-23T13:32:52.279Z,28.27
2023-12-23T13:35:23.554Z,28.27
2023-12-23T13:37:54.273Z,28.29
2023-12-23T13:40:25.669Z,28.31
2023-12-23T13:42:55.745Z,28.27
2023-12-23T13:45:26.961Z,28.27
2023-12-23T13:47:59.119Z,28.27
2023-12-23T13:50:30.336Z,28.25
2023-12-23T13:53:00.978Z,28.24
2023-12-23T13:55:32.796Z,28.24
2023-12-23T13:58:03.344Z,28.24
2023-12-23T14:00:35.335Z,28.27
2023-12-23T14:03:06.463Z,28.24
2023-12-23T14:05:38.939Z,28.25
2023-12-23T14:08:11.227Z,28.23
2023-12-23T14:10:41.728Z,28.22
2023-12-23T14:13:12.324Z,28.25
2023-12-23T14:15:43.141Z,28.24
2023-12-23T14:18:13.979Z,28.25
2023-12-23T14:20:44.596Z,28.24
2023-12-23T14:23:15.218Z,28.18
2023-12-23T14:26:48.992Z,28.22
2023-12-23T14:29:19.837Z,28.23
2023-12-23T14:31:52.213Z,28.23
2023-12-23T14:34:23.012Z,28.23
2023-12-23T14:36:53.589Z,28.22
2023-12-23T14:39:25.005Z,28.19
2023-12-23T14:41:55.828Z,28.19
2023-12-23T14:44:26.505Z,28.19
2023-12-23T14:46:57.284Z,28.17
2023-12-23T14:49:28.082Z,28.18
2023-12-23T14:51:58.632Z,28.20
2023-12-23T14:54:29.214Z,28.19
2023-12-23T14:56:59.516Z,28.18
2023-12-23T14:59:33.483Z,28.18
2023-12-23T15:02:05.503Z,28.18
2023-12-23T15:04:36.338Z,28.17
2023-12-23T15:07:06.988Z,28.20
2023-12-23T15:09:38.023Z,28.20
2023-12-23T15:12:08.907Z,28.18
2023-12-23T15:14:39.557Z,28.18
2023-12-23T15:17:10.666Z,28.18
2023-12-23T15:19:42.188Z,28.17
2023-12-23T15:22:12.793Z,28.13
2023-12-23T15:24:43.451Z,28.09
2023-12-23T15:27:14.525Z,28.08
2023-12-23T15:29:45.324Z,28.05
2023-12-23T15:32:15.920Z,28.06
2023-12-23T15:34:46.891Z,28.03
2023-12-23T15:37:17.475Z,28.03
2023-12-23T15:39:48.119Z,28.00
2023-12-23T15:42:18.592Z,28.00
2023-12-23T15:44:48.993Z,28.01
2023-12-23T15:47:19.573Z,28.01
2023-12-23T15:49:50.133Z,27.99
2023-12-23T15:52:20.620Z,27.98
2023-12-23T15:54:53.080Z,27.97
2023-12-23T15:57:24.010Z,28.00
2023-12-23T15:59:54.611Z,27.99
2023-12-23T16:02:25.789Z,27.98
2023-12-23T16:04:56.404Z,28.00
2023-12-23T16:07:27.102Z,27.95
2023-12-23T16:09:57.609Z,27.96
2023-12-23T16:12:28.476Z,27.95
2023-12-23T16:15:00.108Z,27.95
2023-12-23T16:17:30.909Z,27.96
2023-12-23T16:20:03.362Z,27.92
2023-12-23T16:22:34.453Z,27.91
2023-12-23T16:25:05.082Z,27.91
2023-12-23T16:27:38.005Z,27.86
2023-12-23T16:30:09.223Z,27.85
2023-12-23T16:32:39.754Z,27.87
2023-12-23T16:35:13.342Z,27.89
2023-12-23T16:37:45.196Z,27.86
2023-12-23T16:40:15.928Z,27.85
2023-12-23T16:42:46.485Z,27.86
2023-12-23T16:45:19.326Z,27.84
2023-12-23T16:47:50.118Z,27.85
2023-12-23T16:50:20.691Z,27.83
2023-12-23T16:52:51.571Z,27.82
2023-12-23T16:55:22.834Z,27.83
2023-12-23T16:57:53.837Z,27.86
2023-12-23T17:00:24.520Z,27.81
2023-12-23T17:02:55.372Z,27.83
2023-12-23T17:05:27.098Z,27.83
2023-12-23T17:07:57.650Z,27.78
2023-12-23T17:10:31.070Z,27.79
2023-12-23T17:13:01.650Z,27.80
2023-12-23T17:15:32.371Z,27.80
2023-12-23T17:18:03.737Z,27.80
2023-12-23T17:20:34.771Z,27.78
2023-12-23T17:23:05.525Z,27.79
2023-12-23T17:25:36.392Z,27.79
2023-12-23T17:28:11.410Z,27.78
2023-12-23T17:30:43.633Z,27.77
2023-12-23T17:33:15.940Z,27.76
2023-12-23T17:35:46.632Z,27.74
2023-12-23T17:38:17.151Z,27.74
2023-12-23T17:40:48.404Z,27.72
2023-12-23T17:43:19.743Z,27.70
2023-12-23T17:45:50.318Z,27.74
2023-12-23T17:48:21.327Z,27.79
2023-12-23T17:50:52.077Z,27.76
2023-12-23T17:53:24.553Z,27.75
2023-12-23T17:55:56.361Z,27.74
2023-12-23T17:58:27.198Z,27.76
2023-12-23T18:00:57.813Z,27.73
2023-12-23T18:03:28.356Z,27.71
2023-12-23T18:05:58.992Z,27.69
2023-12-23T18:08:29.721Z,27.72
2023-12-23T18:11:00.325Z,27.75
2023-12-23T18:13:31.054Z,27.73
2023-12-23T18:16:01.824Z,27.70
2023-12-23T18:18:32.646Z,27.71
2023-12-23T18:21:03.251Z,27.70
2023-12-23T18:23:34.097Z,27.68
2023-12-23T18:26:04.824Z,27.68
2023-12-23T18:28:36.075Z,27.67
2023-12-23T18:31:12.097Z,27.65
2023-12-23T18:34:15.474Z,27.63
2023-12-23T18:36:46.243Z,27.64
2023-12-23T18:39:17.014Z,27.64
2023-12-23T18:41:47.495Z,27.66
2023-12-23T18:44:18.197Z,27.66
2023-12-23T18:46:48.842Z,27.63
2023-12-23T18:49:19.755Z,27.63
2023-12-23T18:51:50.245Z,27.63
2023-12-23T18:54:20.806Z,27.61
2023-12-23T18:56:51.274Z,27.62
2023-12-23T18:59:22.106Z,27.60
2023-12-23T19:01:52.619Z,27.58
2023-12-23T19:04:23.511Z,27.59
2023-12-23T19:06:54.128Z,27.61
2023-12-23T19:09:24.839Z,27.62
2023-12-23T19:11:55.889Z,27.63
2023-12-23T19:14:26.474Z,27.60
2023-12-23T19:16:56.934Z,27.55
2023-12-23T19:19:27.606Z,27.57
2023-12-23T19:21:58.152Z,27.55
2023-12-23T19:24:28.627Z,27.56
2023-12-23T19:26:59.189Z,27.52
2023-12-23T19:29:29.842Z,27.51
2023-12-23T19:32:00.568Z,27.52
2023-12-23T19:34:31.231Z,27.53
2023-12-23T19:37:01.996Z,27.52
2023-12-23T19:39:32.555Z,27.51
2023-12-23T19:42:05.122Z,27.51
2023-12-23T19:44:35.766Z,27.52
2023-12-23T19:47:06.507Z,27.52
2023-12-23T19:49:37.104Z,27.52
2023-12-23T19:52:07.970Z,27.56
2023-12-23T19:54:38.502Z,27.50
2023-12-23T19:57:09.229Z,27.52
2023-12-23T19:59:40.940Z,27.48
2023-12-23T20:02:11.916Z,27.50
2023-12-23T20:04:42.448Z,27.51
2023-12-23T20:07:14.137Z,27.48
2023-12-23T20:09:44.692Z,27.47
2023-12-23T20:12:15.238Z,27.49
2023-12-23T20:14:45.717Z,27.51
2023-12-23T20:17:16.228Z,27.53
2023-12-23T20:19:46.773Z,27.50
2023-12-23T20:22:17.313Z,27.48
2023-12-23T20:24:47.825Z,27.50
2023-12-23T20:27:18.332Z,27.49
2023-12-23T20:29:48.896Z,27.50
2023-12-23T20:32:19.738Z,27.50
2023-12-23T20:34:50.321Z,27.48
2023-12-23T20:37:20.730Z,27.50
2023-12-23T20:39:51.189Z,27.46
2023-12-23T20:42:25.425Z,27.44
2023-12-23T20:44:56.181Z,27.46
2023-12-23T20:47:26.875Z,27.47
2023-12-23T20:49:58.350Z,27.46
2023-12-23T20:52:28.480Z,27.49
2023-12-23T20:54:58.880Z,27.46
2023-12-23T20:57:29.314Z,27.42
2023-12-23T21:00:00.714Z,27.45
2023-12-23T21:02:31.038Z,27.43
2023-12-23T21:05:01.749Z,27.44
2023-12-23T21:07:32.925Z,27.42
2023-12-23T21:10:03.471Z,27.43
2023-12-23T21:12:33.817Z,27.40
2023-12-23T21:15:04.719Z,27.39
2023-12-23T21:17:37.064Z,27.40
2023-12-23T21:20:09.301Z,27.38
2023-12-23T21:22:39.893Z,27.38
2023-12-23T21:25:10.862Z,27.38
2023-12-23T21:27:41.561Z,27.35
2023-12-23T21:30:12.716Z,27.34
2023-12-23T21:32:43.514Z,27.35
2023-12-23T21:35:14.547Z,27.35
2023-12-23T21:37:45.051Z,27.32
2023-12-23T21:40:16.017Z,27.28
2023-12-23T21:42:46.966Z,27.29
2023-12-23T21:45:17.601Z,27.27
2023-12-23T21:47:52.900Z,27.27
2023-12-23T21:50:24.711Z,27.25
2023-12-23T21:52:55.702Z,27.27
2023-12-23T21:55:26.611Z,27.26
2023-12-23T21:57:57.473Z,27.26
2023-12-23T22:00:27.998Z,27.22
2023-12-23T22:02:58.964Z,27.25
2023-12-23T22:05:30.871Z,27.27
2023-12-23T22:08:01.666Z,27.24
2023-12-23T22:10:32.224Z,27.26
2023-12-23T22:13:02.808Z,27.25
2023-12-23T22:15:33.392Z,27.25
2023-12-23T22:18:04.089Z,27.26
2023-12-23T22:20:35.092Z,27.25
2023-12-23T22:23:06.015Z,27.24
2023-12-23T22:25:36.624Z,27.22
2023-12-23T22:28:07.121Z,27.24
2023-12-23T22:30:37.887Z,27.19
2023-12-23T22:33:08.981Z,27.21
2023-12-23T22:35:39.656Z,27.23
2023-12-23T22:38:10.344Z,27.19
2023-12-23T22:40:40.903Z,27.19
2023-12-23T22:43:11.428Z,27.19
2023-12-23T22:45:41.952Z,27.20
2023-12-23T22:48:12.712Z,27.19
2023-12-23T22:50:43.465Z,27.19
2023-12-23T22:53:15.254Z,27.18
2023-12-23T22:55:45.764Z,27.17
2023-12-23T22:58:17.068Z,27.16
2023-12-23T23:00:47.672Z,27.18
2023-12-23T23:03:18.037Z,27.15
2023-12-23T23:05:48.786Z,27.17
2023-12-23T23:08:19.380Z,27.13
2023-12-23T23:10:50.044Z,27.14
2023-12-23T23:13:20.714Z,27.19
2023-12-23T23:15:51.294Z,27.18
2023-12-23T23:18:24.043Z,27.20
2023-12-23T23:20:55.315Z,27.13
2023-12-23T23:23:25.956Z,27.16
2023-12-23T23:25:56.689Z,27.12
2023-12-23T23:28:27.215Z,27.14
2023-12-23T23:30:58.390Z,27.14
2023-12-23T23:33:28.929Z,27.13
2023-12-23T23:35:59.472Z,27.15
2023-12-23T23:38:30.067Z,27.12
2023-12-23T23:41:01.101Z,27.12
2023-12-23T23:43:31.640Z,27.14
2023-12-23T23:46:02.331Z,27.11
2023-12-23T23:48:32.872Z,27.14
2023-12-23T23:51:03.616Z,27.13
2023-12-23T23:53:34.316Z,26.90
2023-12-23T23:56:06.447Z,26.84
2023-12-23T23:58:37.023Z,26.90
